createdAt,value
2023-05-05T00:00:48.538Z,0.00
2023-05-05T00:01:48.562Z,0.00
2023-05-05T00:02:48.648Z,0.00
2023-05-05T00:03:48.551Z,0.00
2023-05-05T00:04:48.615Z,0.00
2023-05-05T00:05:48.510Z,0.00
2023-05-05T00:06:48.471Z,0.00
2023-05-05T00:07:48.469Z,0.00
2023-05-05T00:08:48.449Z,0.00
2023-05-05T00:09:48.446Z,0.00
2023-05-05T00:10:48.441Z,0.00
2023-05-05T00:11:48.554Z,0.00
2023-05-05T00:12:48.420Z,0.00
2023-05-05T00:13:48.427Z,0.00
2023-05-05T00:14:48.381Z,0.00
2023-05-05T00:15:48.378Z,0.00
2023-05-05T00:16:48.390Z,0.00
2023-05-05T00:17:48.415Z,0.00
2023-05-05T00:18:48.341Z,0.00
2023-05-05T00:19:48.339Z,0.00
2023-05-05T00:20:48.342Z,0.00
2023-05-05T00:21:48.317Z,0.00
2023-05-05T00:22:48.317Z,0.00
2023-05-05T00:23:48.343Z,0.00
2023-05-05T00:24:48.288Z,0.00
2023-05-05T00:25:48.286Z,0.00
2023-05-05T00:26:48.287Z,0.00
2023-05-05T00:27:48.260Z,0.00
2023-05-05T00:28:48.247Z,0.00
2023-05-05T00:29:48.268Z,0.00
2023-05-05T00:30:48.264Z,0.00
2023-05-05T00:31:48.218Z,0.00
2023-05-05T00:32:48.376Z,0.00
2023-05-05T00:33:48.214Z,0.00
2023-05-05T00:34:48.225Z,0.00
2023-05-05T00:35:48.966Z,0.00
2023-05-05T00:36:48.185Z,0.00
2023-05-05T00:37:48.175Z,0.00
2023-05-05T00:38:48.159Z,0.00
2023-05-05T00:39:48.159Z,0.00
2023-05-05T00:40:48.154Z,0.00
2023-05-05T00:41:48.156Z,0.00
2023-05-05T00:42:48.152Z,0.00
2023-05-05T00:43:48.111Z,0.00
2023-05-05T00:44:48.113Z,0.00
2023-05-05T00:45:48.219Z,0.00
2023-05-05T00:46:48.143Z,0.00
2023-05-05T00:47:48.135Z,0.00
2023-05-05T00:48:48.068Z,0.00
2023-05-05T00:49:48.056Z,0.00
2023-05-05T00:50:48.043Z,0.00
2023-05-05T00:51:48.042Z,0.00
2023-05-05T00:52:48.021Z,0.00
2023-05-05T00:53:48.061Z,0.00
2023-05-05T00:54:48.132Z,0.00
2023-05-05T00:55:47.993Z,0.00
2023-05-05T00:56:47.980Z,0.00
2023-05-05T00:57:47.971Z,0.00
2023-05-05T00:58:47.960Z,0.00
2023-05-05T00:59:47.998Z,0.00
2023-05-05T01:00:47.938Z,0.00
2023-05-05T01:01:47.978Z,0.00
2023-05-05T01:02:48.006Z,0.00
2023-05-05T01:03:48.036Z,0.00
2023-05-05T01:04:47.894Z,0.00
2023-05-05T01:05:47.946Z,0.00
2023-05-05T01:06:47.875Z,0.00
2023-05-05T01:07:47.877Z,0.00
2023-05-05T01:08:47.863Z,0.00
2023-05-05T01:09:47.856Z,0.00
2023-05-05T01:10:47.838Z,0.00
2023-05-05T01:11:47.875Z,0.00
2023-05-05T01:12:47.840Z,0.00
2023-05-05T01:13:47.821Z,0.00
2023-05-05T01:14:47.795Z,0.00
2023-05-05T01:15:47.807Z,0.00
2023-05-05T01:16:47.792Z,0.00
2023-05-05T01:17:47.826Z,0.00
2023-05-05T01:18:47.773Z,0.00
2023-05-05T01:19:47.763Z,0.00
2023-05-05T01:20:47.753Z,0.00
2023-05-05T01:21:47.742Z,0.00
2023-05-05T01:22:47.727Z,0.00
2023-05-05T01:23:47.747Z,0.00
2023-05-05T01:24:47.702Z,0.00
2023-05-05T01:25:47.697Z,0.00
2023-05-05T01:26:47.714Z,0.00
2023-05-05T01:27:47.692Z,0.00
2023-05-05T01:28:47.672Z,0.00
2023-05-05T01:29:47.694Z,0.00
2023-05-05T01:30:47.648Z,0.00
2023-05-05T01:31:47.673Z,0.00
2023-05-05T01:32:47.636Z,0.00
2023-05-05T01:33:47.715Z,0.00
2023-05-05T01:34:47.597Z,0.00
2023-05-05T01:35:47.626Z,0.00
2023-05-05T01:36:47.588Z,0.00
2023-05-05T01:37:47.568Z,0.00
2023-05-05T01:38:47.564Z,0.00
2023-05-05T01:39:47.562Z,0.00
2023-05-05T01:40:47.537Z,0.00
2023-05-05T01:41:47.563Z,0.00
2023-05-05T01:42:47.581Z,0.00
2023-05-05T01:43:47.516Z,0.00
2023-05-05T01:44:47.520Z,0.00
2023-05-05T01:45:47.521Z,0.00
2023-05-05T01:46:47.479Z,0.00
2023-05-05T01:47:47.634Z,0.00
2023-05-05T01:48:47.462Z,0.00
2023-05-05T01:49:47.501Z,0.00
2023-05-05T01:50:47.442Z,0.00
2023-05-05T01:51:47.440Z,0.00
2023-05-05T01:52:47.431Z,0.00
2023-05-05T01:53:47.446Z,0.00
2023-05-05T01:54:47.404Z,0.00
2023-05-05T01:55:47.405Z,0.00
2023-05-05T01:56:47.395Z,0.00
2023-05-05T01:57:47.380Z,0.00
2023-05-05T01:58:47.382Z,0.00
2023-05-05T01:59:47.533Z,0.00
2023-05-05T02:00:47.361Z,0.00
2023-05-05T02:01:47.344Z,0.00
2023-05-05T02:02:47.392Z,0.00
2023-05-05T02:03:47.319Z,0.00
2023-05-05T02:04:47.323Z,0.00
2023-05-05T02:05:47.348Z,0.00
2023-05-05T02:06:47.258Z,0.00
2023-05-05T02:07:47.288Z,0.00
2023-05-05T02:08:47.283Z,0.00
2023-05-05T02:09:47.273Z,0.00
2023-05-05T02:10:47.254Z,0.00
2023-05-05T02:11:47.307Z,0.00
2023-05-05T02:12:47.272Z,0.00
2023-05-05T02:13:47.304Z,0.00
2023-05-05T02:14:47.217Z,0.00
2023-05-05T02:15:47.183Z,0.00
2023-05-05T02:16:47.193Z,0.00
2023-05-05T02:17:47.268Z,0.00
2023-05-05T02:18:47.186Z,0.00
2023-05-05T02:19:47.133Z,0.00
2023-05-05T02:20:47.099Z,0.00
2023-05-05T02:21:47.112Z,0.00
2023-05-05T02:22:47.103Z,0.00
2023-05-05T02:23:47.102Z,0.00
2023-05-05T02:24:47.067Z,0.00
2023-05-05T02:25:47.063Z,0.00
2023-05-05T02:26:47.053Z,0.00
2023-05-05T02:27:47.044Z,0.00
2023-05-05T02:28:47.042Z,0.00
2023-05-05T02:29:47.056Z,0.00
2023-05-05T02:30:47.017Z,0.00
2023-05-05T02:31:47.101Z,0.00
2023-05-05T02:32:47.054Z,0.00
2023-05-05T02:33:46.981Z,0.00
2023-05-05T02:34:46.971Z,0.00
2023-05-05T02:35:46.999Z,0.00
2023-05-05T02:36:46.980Z,0.00
2023-05-05T02:37:46.956Z,0.00
2023-05-05T02:38:46.937Z,0.00
2023-05-05T02:39:46.937Z,0.00
2023-05-05T02:40:46.930Z,0.00
2023-05-05T02:41:46.971Z,0.00
2023-05-05T02:42:46.920Z,0.00
2023-05-05T02:43:46.897Z,0.00
2023-05-05T02:44:46.887Z,0.00
2023-05-05T02:45:46.873Z,0.00
2023-05-05T02:46:46.935Z,0.00
2023-05-05T02:47:46.957Z,0.00
2023-05-05T02:48:46.877Z,0.00
2023-05-05T02:49:46.841Z,0.00
2023-05-05T02:50:46.832Z,0.00
2023-05-05T02:51:46.818Z,0.00
2023-05-05T02:52:46.814Z,0.00
2023-05-05T02:53:46.832Z,0.00
2023-05-05T02:54:46.787Z,0.00
2023-05-05T02:55:46.776Z,0.00
2023-05-05T02:56:46.757Z,0.00
2023-05-05T02:57:46.754Z,0.00
2023-05-05T02:58:46.752Z,0.00
2023-05-05T02:59:46.762Z,0.00
2023-05-05T03:00:46.722Z,0.00
2023-05-05T03:01:46.766Z,0.00
2023-05-05T03:02:46.775Z,0.00
2023-05-05T03:03:46.844Z,5.62
2023-05-05T03:04:46.694Z,5.62
2023-05-05T03:05:46.697Z,5.62
2023-05-05T03:06:46.672Z,5.62
2023-05-05T03:07:46.661Z,5.62
2023-05-05T03:08:46.654Z,5.62
2023-05-05T03:09:46.636Z,5.62
2023-05-05T03:10:46.624Z,5.62
2023-05-05T03:11:46.654Z,5.62
2023-05-05T03:12:46.652Z,5.62
2023-05-05T03:13:46.596Z,5.62
2023-05-05T03:14:46.593Z,5.62
2023-05-05T03:15:46.588Z,5.62
2023-05-05T03:16:46.616Z,5.62
2023-05-05T03:17:46.633Z,5.62
2023-05-05T03:18:46.562Z,5.62
2023-05-05T03:19:46.544Z,5.62
2023-05-05T03:20:46.542Z,11.25
2023-05-05T03:21:46.536Z,11.25
2023-05-05T03:22:46.517Z,11.25
2023-05-05T03:23:46.547Z,11.25
2023-05-05T03:24:46.506Z,11.25
2023-05-05T03:25:46.491Z,11.25
2023-05-05T03:26:46.487Z,11.25
2023-05-05T03:27:46.481Z,11.25
2023-05-05T03:28:46.466Z,11.25
2023-05-05T03:29:46.476Z,11.25
2023-05-05T03:30:46.447Z,11.25
2023-05-05T03:31:46.478Z,11.25
2023-05-05T03:32:46.816Z,11.25
2023-05-05T03:33:46.412Z,11.25
2023-05-05T03:34:46.402Z,11.25
2023-05-05T03:35:46.409Z,11.25
2023-05-05T03:36:46.399Z,11.25
2023-05-05T03:37:46.364Z,11.25
2023-05-05T03:38:46.362Z,16.88
2023-05-05T03:39:46.351Z,16.88
2023-05-05T03:40:46.350Z,16.88
2023-05-05T03:41:46.362Z,16.88
2023-05-05T03:42:46.324Z,16.88
2023-05-05T03:43:46.303Z,16.88
2023-05-05T03:44:46.306Z,16.88
2023-05-05T03:45:46.311Z,16.88
2023-05-05T03:46:46.290Z,16.88
2023-05-05T03:47:46.308Z,16.88
2023-05-05T03:48:46.264Z,16.88
2023-05-05T03:49:46.249Z,16.88
2023-05-05T03:50:46.250Z,16.88
2023-05-05T03:51:46.244Z,16.88
2023-05-05T03:52:46.245Z,16.88
2023-05-05T03:53:46.262Z,16.88
2023-05-05T03:54:46.231Z,16.88
2023-05-05T03:55:46.209Z,22.50
2023-05-05T03:56:46.202Z,22.50
2023-05-05T03:57:46.193Z,22.50
2023-05-05T03:58:46.186Z,22.50
2023-05-05T03:59:46.193Z,22.50
2023-05-05T04:00:46.159Z,22.50
2023-05-05T04:01:46.149Z,22.50
2023-05-05T04:02:46.210Z,22.50
2023-05-05T04:03:46.229Z,28.12
2023-05-05T04:04:46.131Z,45.00
2023-05-05T04:05:46.179Z,33.75
2023-05-05T04:06:46.099Z,33.75
2023-05-05T04:07:46.238Z,33.75
2023-05-05T04:08:46.091Z,28.12
2023-05-05T04:09:46.067Z,28.12
2023-05-05T04:10:46.062Z,28.12
2023-05-05T04:11:46.075Z,28.12
2023-05-05T04:12:46.058Z,28.12
2023-05-05T04:13:46.044Z,28.12
2023-05-05T04:14:46.026Z,33.75
2023-05-05T04:15:46.036Z,39.38
2023-05-05T04:16:46.017Z,50.62
2023-05-05T04:17:46.091Z,50.62
2023-05-05T04:18:45.979Z,50.62
2023-05-05T04:19:45.977Z,56.25
2023-05-05T04:20:45.962Z,39.38
2023-05-05T04:21:45.950Z,33.75
2023-05-05T04:22:45.932Z,56.25
2023-05-05T04:23:45.958Z,61.88
2023-05-05T04:24:45.931Z,56.25
2023-05-05T04:25:45.917Z,45.00
2023-05-05T04:26:45.903Z,50.62
2023-05-05T04:27:45.891Z,50.62
2023-05-05T04:28:45.886Z,50.62
2023-05-05T04:29:45.915Z,50.62
2023-05-05T04:30:45.862Z,56.25
2023-05-05T04:31:45.914Z,50.62
2023-05-05T04:32:45.916Z,45.00
2023-05-05T04:33:45.831Z,39.38
2023-05-05T04:34:45.825Z,45.00
2023-05-05T04:35:46.168Z,50.62
2023-05-05T04:36:45.815Z,45.00
2023-05-05T04:37:46.713Z,50.62
2023-05-05T04:38:46.784Z,73.12
2023-05-05T04:39:46.682Z,106.88
2023-05-05T04:40:45.774Z,123.75
2023-05-05T04:41:45.787Z,112.50
2023-05-05T04:42:45.758Z,106.88
2023-05-05T04:43:45.747Z,112.50
2023-05-05T04:44:45.734Z,101.25
2023-05-05T04:45:45.846Z,95.62
2023-05-05T04:46:45.715Z,61.88
2023-05-05T04:47:45.782Z,50.62
2023-05-05T04:48:45.696Z,50.62
2023-05-05T04:49:45.679Z,50.62
2023-05-05T04:50:45.673Z,73.12
2023-05-05T04:51:45.665Z,67.50
2023-05-05T04:52:45.657Z,50.62
2023-05-05T04:53:45.669Z,61.88
2023-05-05T04:54:45.633Z,84.38
2023-05-05T04:55:45.638Z,78.75
2023-05-05T04:56:45.616Z,67.50
2023-05-05T04:57:45.604Z,56.25
2023-05-05T04:58:45.586Z,56.25
2023-05-05T04:59:45.612Z,56.25
2023-05-05T05:00:45.571Z,50.62
2023-05-05T05:01:45.577Z,61.88
2023-05-05T05:02:45.737Z,73.12
2023-05-05T05:03:45.685Z,84.38
2023-05-05T05:04:45.534Z,95.62
2023-05-05T05:05:45.554Z,90.00
2023-05-05T05:06:45.513Z,84.38
2023-05-05T05:07:45.498Z,90.00
2023-05-05T05:08:45.485Z,106.88
2023-05-05T05:09:45.474Z,112.50
2023-05-05T05:10:45.480Z,112.50
2023-05-05T05:11:45.491Z,112.50
2023-05-05T05:12:45.539Z,112.50
2023-05-05T05:13:45.441Z,112.50
2023-05-05T05:14:45.433Z,112.50
2023-05-05T05:15:45.417Z,112.50
2023-05-05T05:16:45.494Z,106.88
2023-05-05T05:17:45.476Z,106.88
2023-05-05T05:18:45.396Z,106.88
2023-05-05T05:19:45.397Z,106.88
2023-05-05T05:20:45.384Z,106.88
2023-05-05T05:21:45.371Z,112.50
2023-05-05T05:22:45.363Z,112.50
2023-05-05T05:23:45.395Z,112.50
2023-05-05T05:24:45.353Z,112.50
2023-05-05T05:25:45.322Z,112.50
2023-05-05T05:26:45.326Z,112.50
2023-05-05T05:27:46.795Z,112.50
2023-05-05T05:28:46.355Z,118.12
2023-05-05T05:29:45.299Z,118.12
2023-05-05T05:30:45.282Z,118.12
2023-05-05T05:31:45.299Z,118.12
2023-05-05T05:32:45.338Z,112.50
2023-05-05T05:33:45.257Z,112.50
2023-05-05T05:34:45.267Z,112.50
2023-05-05T05:35:45.225Z,112.50
2023-05-05T05:36:45.230Z,112.50
2023-05-05T05:37:45.200Z,112.50
2023-05-05T05:38:45.207Z,112.50
2023-05-05T05:39:45.180Z,112.50
2023-05-05T05:40:45.205Z,112.50
2023-05-05T05:41:45.160Z,112.50
2023-05-05T05:42:45.168Z,112.50
2023-05-05T05:43:45.132Z,112.50
2023-05-05T05:44:45.130Z,118.12
2023-05-05T05:45:45.145Z,118.12
2023-05-05T05:46:45.139Z,118.12
2023-05-05T05:47:45.128Z,118.12
2023-05-05T05:48:45.081Z,118.12
2023-05-05T05:49:45.076Z,118.12
2023-05-05T05:50:45.072Z,118.12
2023-05-05T05:51:45.051Z,118.12
2023-05-05T05:52:45.070Z,118.12
2023-05-05T05:53:45.031Z,106.88
2023-05-05T05:54:45.026Z,101.25
2023-05-05T05:55:45.014Z,106.88
2023-05-05T05:56:45.013Z,118.12
2023-05-05T05:57:45.007Z,118.12
2023-05-05T05:58:45.017Z,118.12
2023-05-05T05:59:44.998Z,112.50
2023-05-05T06:00:44.984Z,106.88
2023-05-05T06:01:44.955Z,101.25
2023-05-05T06:02:45.025Z,106.88
2023-05-05T06:03:44.972Z,118.12
2023-05-05T06:04:44.960Z,123.75
2023-05-05T06:05:44.922Z,123.75
2023-05-05T06:06:44.912Z,123.75
2023-05-05T06:07:44.910Z,118.12
2023-05-05T06:08:44.889Z,112.50
2023-05-05T06:09:44.899Z,106.88
2023-05-05T06:10:44.906Z,101.25
2023-05-05T06:11:44.855Z,101.25
2023-05-05T06:12:44.884Z,101.25
2023-05-05T06:13:44.835Z,101.25
2023-05-05T06:14:44.835Z,101.25
2023-05-05T06:15:44.826Z,101.25
2023-05-05T06:16:44.816Z,101.25
2023-05-05T06:17:44.814Z,101.25
2023-05-05T06:18:44.786Z,101.25
2023-05-05T06:19:44.764Z,101.25
2023-05-05T06:20:44.755Z,101.25
2023-05-05T06:21:44.737Z,101.25
2023-05-05T06:22:44.756Z,101.25
2023-05-05T06:23:44.725Z,101.25
2023-05-05T06:24:44.717Z,101.25
2023-05-05T06:25:44.705Z,101.25
2023-05-05T06:26:44.697Z,101.25
2023-05-05T06:27:44.697Z,101.25
2023-05-05T06:28:44.713Z,101.25
2023-05-05T06:29:44.664Z,101.25
2023-05-05T06:30:44.666Z,101.25
2023-05-05T06:31:44.660Z,101.25
2023-05-05T06:32:44.660Z,101.25
2023-05-05T06:33:44.642Z,101.25
2023-05-05T06:34:44.665Z,101.25
2023-05-05T06:35:44.604Z,101.25
2023-05-05T06:36:44.642Z,101.25
2023-05-05T06:37:44.588Z,101.25
2023-05-05T06:38:44.581Z,106.88
2023-05-05T06:39:44.572Z,106.88
2023-05-05T06:40:44.582Z,106.88
2023-05-05T06:41:44.547Z,106.88
2023-05-05T06:42:44.538Z,106.88
2023-05-05T06:43:44.528Z,106.88
2023-05-05T06:44:44.520Z,106.88
2023-05-05T06:45:44.546Z,112.50
2023-05-05T06:46:44.528Z,112.50
2023-05-05T06:47:44.609Z,112.50
2023-05-05T06:48:44.477Z,112.50
2023-05-05T06:49:44.469Z,112.50
2023-05-05T06:50:44.467Z,112.50
2023-05-05T06:51:44.441Z,118.12
2023-05-05T06:52:44.469Z,118.12
2023-05-05T06:53:44.427Z,118.12
2023-05-05T06:54:44.417Z,118.12
2023-05-05T06:55:44.399Z,118.12
2023-05-05T06:56:44.387Z,118.12
2023-05-05T06:57:44.378Z,123.75
2023-05-05T06:58:44.397Z,123.75
2023-05-05T06:59:44.359Z,123.75
2023-05-05T07:00:44.385Z,123.75
2023-05-05T07:01:44.338Z,123.75
2023-05-05T07:02:44.393Z,123.75
2023-05-05T07:03:44.351Z,123.75
2023-05-05T07:04:44.358Z,123.75
2023-05-05T07:05:44.305Z,123.75
2023-05-05T07:06:44.296Z,123.75
2023-05-05T07:07:44.276Z,123.75
2023-05-05T07:08:44.277Z,123.75
2023-05-05T07:09:44.272Z,123.75
2023-05-05T07:10:44.304Z,129.38
2023-05-05T07:11:44.230Z,129.38
2023-05-05T07:12:44.266Z,129.38
2023-05-05T07:13:44.214Z,129.38
2023-05-05T07:14:44.201Z,129.38
2023-05-05T07:15:44.218Z,129.38
2023-05-05T07:16:44.293Z,135.00
2023-05-05T07:17:44.230Z,135.00
2023-05-05T07:18:44.166Z,135.00
2023-05-05T07:19:44.270Z,135.00
2023-05-05T07:20:44.146Z,135.00
2023-05-05T07:21:44.144Z,135.00
2023-05-05T07:22:44.162Z,140.62
2023-05-05T07:23:44.121Z,140.62
2023-05-05T07:24:44.117Z,140.62
2023-05-05T07:25:44.095Z,140.62
2023-05-05T07:26:44.097Z,140.62
2023-05-05T07:27:44.509Z,140.62
2023-05-05T07:28:44.093Z,140.62
2023-05-05T07:29:44.055Z,140.62
2023-05-05T07:30:44.064Z,140.62
2023-05-05T07:31:44.062Z,140.62
2023-05-05T07:32:44.178Z,140.62
2023-05-05T07:33:44.021Z,140.62
2023-05-05T07:34:44.058Z,140.62
2023-05-05T07:35:43.997Z,140.62
2023-05-05T07:36:43.991Z,146.25
2023-05-05T07:37:43.990Z,146.25
2023-05-05T07:38:43.961Z,146.25
2023-05-05T07:39:43.954Z,146.25
2023-05-05T07:40:43.960Z,146.25
2023-05-05T07:41:43.938Z,151.88
2023-05-05T07:42:43.913Z,151.88
2023-05-05T07:43:44.644Z,151.88
2023-05-05T07:44:43.900Z,151.88
2023-05-05T07:45:43.914Z,151.88
2023-05-05T07:46:43.902Z,146.25
2023-05-05T07:47:43.959Z,78.75
2023-05-05T07:48:43.861Z,56.25
2023-05-05T07:49:43.848Z,50.62
2023-05-05T07:50:43.840Z,50.62
2023-05-05T07:51:43.843Z,50.62
2023-05-05T07:52:50.047Z,50.62
2023-05-05T07:53:44.803Z,56.25
2023-05-05T07:54:43.817Z,56.25
2023-05-05T07:55:43.788Z,50.62
2023-05-05T07:56:43.784Z,50.62
2023-05-05T07:57:43.822Z,56.25
2023-05-05T07:58:43.793Z,61.88
2023-05-05T07:59:43.755Z,67.50
2023-05-05T08:00:43.770Z,73.12
2023-05-05T08:01:43.748Z,174.38
2023-05-05T08:02:43.833Z,73.12
2023-05-05T08:03:43.792Z,73.12
2023-05-05T08:04:43.808Z,61.88
2023-05-05T08:05:43.702Z,56.25
2023-05-05T08:06:43.675Z,56.25
2023-05-05T08:07:43.668Z,56.25
2023-05-05T08:08:43.656Z,56.25
2023-05-05T08:09:43.646Z,50.62
2023-05-05T08:10:43.658Z,50.62
2023-05-05T08:11:43.646Z,50.62
2023-05-05T08:12:43.644Z,50.62
2023-05-05T08:13:43.608Z,56.25
2023-05-05T08:14:43.592Z,50.62
2023-05-05T08:15:43.613Z,50.62
2023-05-05T08:16:43.597Z,56.25
2023-05-05T08:17:43.587Z,50.62
2023-05-05T08:18:43.557Z,56.25
2023-05-05T08:19:43.549Z,56.25
2023-05-05T08:20:43.551Z,56.25
2023-05-05T08:21:43.520Z,61.88
2023-05-05T08:22:43.635Z,61.88
2023-05-05T08:23:43.505Z,61.88
2023-05-05T08:24:43.488Z,61.88
2023-05-05T08:25:43.483Z,67.50
2023-05-05T08:26:43.478Z,78.75
2023-05-05T08:27:43.478Z,118.12
2023-05-05T08:28:43.476Z,112.50
2023-05-05T08:29:43.493Z,174.38
2023-05-05T08:30:43.448Z,191.25
2023-05-05T08:31:43.474Z,191.25
2023-05-05T08:32:43.454Z,185.62
2023-05-05T08:33:43.415Z,191.25
2023-05-05T08:34:43.410Z,180.00
2023-05-05T08:35:43.404Z,135.00
2023-05-05T08:36:43.376Z,163.12
2023-05-05T08:37:43.374Z,95.62
2023-05-05T08:38:43.359Z,168.75
2023-05-05T08:39:43.350Z,163.12
2023-05-05T08:40:43.373Z,84.38
2023-05-05T08:41:43.328Z,112.50
2023-05-05T08:42:43.319Z,163.12
2023-05-05T08:43:43.312Z,180.00
2023-05-05T08:44:43.295Z,185.62
2023-05-05T08:45:43.290Z,185.62
2023-05-05T08:46:43.374Z,174.38
2023-05-05T08:47:43.601Z,185.62
2023-05-05T08:48:43.252Z,174.38
2023-05-05T08:49:43.241Z,185.62
2023-05-05T08:50:43.228Z,180.00
2023-05-05T08:51:43.220Z,180.00
2023-05-05T08:52:43.281Z,151.88
2023-05-05T08:53:43.207Z,168.75
2023-05-05T08:54:43.186Z,168.75
2023-05-05T08:55:43.170Z,135.00
2023-05-05T08:56:43.151Z,180.00
2023-05-05T08:57:43.162Z,174.38
2023-05-05T08:58:43.175Z,174.38
2023-05-05T08:59:43.126Z,174.38
2023-05-05T09:00:43.224Z,174.38
2023-05-05T09:01:43.117Z,174.38
2023-05-05T09:02:43.221Z,174.38
2023-05-05T09:03:43.651Z,174.38
2023-05-05T09:04:43.111Z,174.38
2023-05-05T09:05:43.071Z,174.38
2023-05-05T09:06:43.058Z,174.38
2023-05-05T09:07:43.038Z,174.38
2023-05-05T09:08:43.088Z,174.38
2023-05-05T09:09:43.025Z,174.38
2023-05-05T09:10:43.216Z,174.38
2023-05-05T09:11:43.008Z,174.38
2023-05-05T09:12:43.037Z,174.38
2023-05-05T09:13:42.981Z,180.00
2023-05-05T09:14:42.996Z,180.00
2023-05-05T09:15:42.984Z,180.00
2023-05-05T09:16:43.028Z,180.00
2023-05-05T09:17:42.980Z,180.00
2023-05-05T09:18:42.944Z,180.00
2023-05-05T09:19:42.933Z,180.00
2023-05-05T09:20:42.911Z,180.00
2023-05-05T09:21:42.910Z,180.00
2023-05-05T09:22:43.254Z,180.00
2023-05-05T09:23:42.894Z,180.00
2023-05-05T09:24:42.879Z,180.00
2023-05-05T09:25:42.879Z,180.00
2023-05-05T09:26:42.863Z,180.00
2023-05-05T09:27:42.914Z,180.00
2023-05-05T09:28:42.869Z,185.62
2023-05-05T09:29:42.833Z,185.62
2023-05-05T09:30:42.828Z,185.62
2023-05-05T09:31:42.807Z,185.62
2023-05-05T09:32:42.878Z,180.00
2023-05-05T09:33:42.783Z,180.00
2023-05-05T09:34:42.790Z,180.00
2023-05-05T09:35:42.772Z,185.62
2023-05-05T09:36:42.748Z,185.62
2023-05-05T09:37:42.745Z,185.62
2023-05-05T09:38:42.734Z,185.62
2023-05-05T09:39:42.727Z,185.62
2023-05-05T09:40:43.201Z,185.62
2023-05-05T09:41:42.705Z,185.62
2023-05-05T09:42:42.687Z,185.62
2023-05-05T09:43:42.690Z,185.62
2023-05-05T09:44:42.679Z,185.62
2023-05-05T09:45:42.660Z,185.62
2023-05-05T09:46:42.765Z,185.62
2023-05-05T09:47:42.675Z,185.62
2023-05-05T09:48:42.642Z,185.62
2023-05-05T09:49:42.617Z,185.62
2023-05-05T09:50:42.624Z,185.62
2023-05-05T09:51:42.598Z,185.62
2023-05-05T09:52:42.612Z,185.62
2023-05-05T09:53:42.605Z,185.62
2023-05-05T09:54:42.566Z,185.62
2023-05-05T09:55:42.564Z,185.62
2023-05-05T09:56:42.547Z,185.62
2023-05-05T09:57:42.541Z,185.62
2023-05-05T09:58:42.605Z,185.62
2023-05-05T09:59:42.513Z,185.62
2023-05-05T10:00:42.510Z,185.62
2023-05-05T10:01:42.512Z,185.62
2023-05-05T10:02:42.508Z,185.62
2023-05-05T10:03:42.478Z,185.62
2023-05-05T10:04:42.516Z,185.62
2023-05-05T10:05:42.467Z,185.62
2023-05-05T10:06:42.454Z,185.62
2023-05-05T10:07:42.439Z,185.62
2023-05-05T10:08:42.441Z,185.62
2023-05-05T10:09:42.431Z,185.62
2023-05-05T10:10:42.438Z,185.62
2023-05-05T10:11:42.427Z,185.62
2023-05-05T10:12:42.447Z,185.62
2023-05-05T10:13:42.374Z,185.62
2023-05-05T10:14:42.350Z,185.62
2023-05-05T10:15:42.363Z,185.62
2023-05-05T10:16:42.658Z,185.62
2023-05-05T10:17:50.819Z,185.62
2023-05-05T10:18:43.346Z,185.62
2023-05-05T10:19:42.308Z,185.62
2023-05-05T10:20:42.301Z,185.62
2023-05-05T10:21:42.384Z,185.62
2023-05-05T10:22:42.295Z,185.62
2023-05-05T10:23:42.270Z,185.62
2023-05-05T10:24:42.242Z,185.62
2023-05-05T10:25:42.234Z,185.62
2023-05-05T10:26:42.233Z,185.62
2023-05-05T10:27:42.232Z,185.62
2023-05-05T10:28:42.240Z,185.62
2023-05-05T10:29:42.296Z,185.62
2023-05-05T10:30:42.221Z,185.62
2023-05-05T10:31:42.189Z,185.62
2023-05-05T10:33:42.294Z,185.62
2023-05-05T10:34:42.214Z,185.62
2023-05-05T10:35:42.149Z,185.62
2023-05-05T10:36:42.129Z,185.62
2023-05-05T10:37:42.126Z,185.62
2023-05-05T10:38:42.119Z,185.62
2023-05-05T10:39:42.102Z,185.62
2023-05-05T10:40:42.118Z,185.62
2023-05-05T10:41:42.091Z,185.62
2023-05-05T10:42:42.077Z,185.62
2023-05-05T10:43:42.067Z,185.62
2023-05-05T10:44:42.058Z,185.62
2023-05-05T10:45:42.107Z,185.62
2023-05-05T10:46:42.170Z,185.62
2023-05-05T10:47:42.169Z,185.62
2023-05-05T10:48:42.055Z,185.62
2023-05-05T10:49:41.995Z,185.62
2023-05-05T10:50:41.992Z,185.62
2023-05-05T10:51:41.987Z,185.62
2023-05-05T10:52:41.991Z,185.62
2023-05-05T10:53:41.970Z,185.62
2023-05-05T10:54:41.986Z,185.62
2023-05-05T10:55:41.941Z,185.62
2023-05-05T10:56:41.942Z,185.62
2023-05-05T10:57:41.914Z,185.62
2023-05-05T10:58:58.469Z,185.62
2023-05-05T10:59:42.906Z,185.62
2023-05-05T11:00:41.891Z,185.62
2023-05-05T11:01:41.879Z,185.62
2023-05-05T11:02:42.000Z,185.62
2023-05-05T11:03:41.878Z,185.62
2023-05-05T11:04:41.886Z,185.62
2023-05-05T11:05:41.831Z,185.62
2023-05-05T11:06:41.820Z,185.62
2023-05-05T11:07:41.804Z,185.62
2023-05-05T11:08:41.799Z,185.62
2023-05-05T11:09:41.795Z,185.62
2023-05-05T11:10:41.831Z,185.62
2023-05-05T11:11:41.770Z,185.62
2023-05-05T11:12:41.783Z,185.62
2023-05-05T11:13:41.744Z,185.62
2023-05-05T11:14:41.732Z,185.62
2023-05-05T11:15:41.747Z,185.62
2023-05-05T11:16:41.771Z,185.62
2023-05-05T11:17:41.741Z,185.62
2023-05-05T11:18:41.703Z,185.62
2023-05-05T11:19:41.704Z,185.62
2023-05-05T11:20:41.768Z,180.00
2023-05-05T11:21:41.679Z,180.00
2023-05-05T11:22:41.712Z,180.00
2023-05-05T11:23:41.655Z,180.00
2023-05-05T11:24:41.678Z,180.00
2023-05-05T11:25:41.636Z,180.00
2023-05-05T11:26:41.615Z,180.00
2023-05-05T11:27:41.622Z,180.00
2023-05-05T11:28:41.776Z,180.00
2023-05-05T11:29:41.600Z,180.00
2023-05-05T11:30:41.655Z,180.00
2023-05-05T11:31:41.621Z,185.62
2023-05-05T11:32:41.592Z,185.62
2023-05-05T11:33:41.544Z,180.00
2023-05-05T11:34:41.576Z,180.00
2023-05-05T11:35:41.516Z,180.00
2023-05-05T11:36:41.515Z,180.00
2023-05-05T11:37:41.492Z,180.00
2023-05-05T11:38:41.506Z,180.00
2023-05-05T11:39:41.483Z,180.00
2023-05-05T11:40:41.499Z,180.00
2023-05-05T11:41:41.452Z,180.00
2023-05-05T11:42:41.448Z,180.00
2023-05-05T11:43:41.430Z,180.00
2023-05-05T11:44:41.434Z,180.00
2023-05-05T11:45:41.418Z,180.00
2023-05-05T11:46:41.482Z,180.00
2023-05-05T11:47:41.425Z,180.00
2023-05-05T11:48:41.386Z,180.00
2023-05-05T11:49:41.431Z,180.00
2023-05-05T11:50:41.364Z,174.38
2023-05-05T11:51:41.357Z,174.38
2023-05-05T11:52:41.380Z,174.38
2023-05-05T11:53:41.339Z,174.38
2023-05-05T11:54:41.327Z,174.38
2023-05-05T11:55:41.322Z,174.38
2023-05-05T11:56:41.312Z,174.38
2023-05-05T11:57:41.299Z,174.38
2023-05-05T11:58:41.311Z,174.38
2023-05-05T11:59:41.269Z,174.38
2023-05-05T12:00:41.277Z,174.38
2023-05-05T12:01:41.253Z,174.38
2023-05-05T12:02:41.347Z,174.38
2023-05-05T12:03:41.427Z,174.38
2023-05-05T12:04:41.272Z,174.38
2023-05-05T12:05:41.222Z,174.38
2023-05-05T12:06:41.211Z,174.38
2023-05-05T12:07:41.194Z,174.38
2023-05-05T12:08:41.183Z,174.38
2023-05-05T12:09:41.175Z,174.38
2023-05-05T12:10:41.250Z,174.38
2023-05-05T12:11:41.163Z,174.38
2023-05-05T12:12:41.178Z,174.38
2023-05-05T12:13:41.134Z,174.38
2023-05-05T12:14:41.115Z,174.38
2023-05-05T12:15:41.106Z,174.38
2023-05-05T12:16:41.278Z,174.38
2023-05-05T12:17:41.116Z,174.38
2023-05-05T12:18:41.092Z,174.38
2023-05-05T12:19:41.070Z,174.38
2023-05-05T12:20:41.066Z,174.38
2023-05-05T12:21:41.070Z,174.38
2023-05-05T12:22:41.132Z,174.38
2023-05-05T12:23:41.016Z,174.38
2023-05-05T12:24:41.023Z,168.75
2023-05-05T12:25:41.000Z,168.75
2023-05-05T12:26:40.998Z,168.75
2023-05-05T12:27:40.976Z,168.75
2023-05-05T12:28:41.002Z,168.75
2023-05-05T12:29:40.969Z,168.75
2023-05-05T12:30:40.968Z,168.75
2023-05-05T12:31:41.005Z,168.75
2023-05-05T12:32:40.961Z,168.75
2023-05-05T12:33:40.929Z,168.75
2023-05-05T12:34:40.946Z,168.75
2023-05-05T12:35:40.901Z,168.75
2023-05-05T12:36:40.908Z,168.75
2023-05-05T12:37:40.886Z,168.75
2023-05-05T12:38:40.875Z,168.75
2023-05-05T12:39:40.882Z,168.75
2023-05-05T12:40:40.945Z,168.75
2023-05-05T12:41:40.847Z,163.12
2023-05-05T12:42:40.843Z,163.12
2023-05-05T12:43:40.827Z,163.12
2023-05-05T12:44:40.824Z,163.12
2023-05-05T12:45:40.832Z,163.12
2023-05-05T12:46:40.824Z,163.12